createdAt,value
2023-04-22T06:06:55.243Z,98692.80
2023-04-22T06:11:58.250Z,98689.48
2023-04-22T06:17:00.940Z,98688.91
2023-04-22T06:22:03.019Z,98691.27
2023-04-22T06:27:05.472Z,98688.40
2023-04-22T06:32:07.305Z,98685.45
2023-04-22T06:37:09.578Z,98684.31
2023-04-22T06:42:12.076Z,98682.95
2023-04-22T06:47:56.186Z,98689.36
2023-04-22T06:53:05.212Z,98689.93
2023-04-22T06:58:07.274Z,98693.12
2023-04-22T07:03:09.212Z,98690.52
2023-04-22T07:08:12.104Z,98688.04
2023-04-22T07:13:14.119Z,98691.33
2023-04-22T07:18:16.405Z,98690.38
2023-04-22T07:23:19.066Z,98688.48
2023-04-22T07:28:21.184Z,98691.06
2023-04-22T07:33:23.350Z,98691.94
2023-04-22T07:38:26.089Z,98693.08
2023-04-22T07:43:27.991Z,98689.77
2023-04-22T07:48:30.693Z,98687.59
2023-04-22T07:53:33.345Z,98695.29
2023-04-22T07:58:35.268Z,98693.05
2023-04-22T08:03:37.530Z,98689.48
2023-04-22T08:08:40.753Z,98691.11
2023-04-22T08:13:42.860Z,98691.92
2023-04-22T08:18:45.478Z,98689.41
2023-04-22T08:23:47.888Z,98691.77
2023-04-22T08:28:50.115Z,98691.16
2023-04-22T08:33:52.110Z,98684.52
2023-04-22T08:38:54.947Z,98683.48
2023-04-22T08:43:57.897Z,98678.55
2023-04-22T08:49:06.127Z,98672.72
2023-04-22T08:54:08.390Z,98672.73
2023-04-22T08:59:12.112Z,98670.44
2023-04-22T09:04:15.574Z,98665.88
2023-04-22T09:09:20.242Z,98661.09
2023-04-22T09:14:22.744Z,98661.21
2023-04-22T09:19:25.704Z,98661.92
2023-04-22T09:24:27.738Z,98661.68
2023-04-22T09:29:31.919Z,98661.88
2023-04-22T09:34:34.452Z,98654.46
2023-04-22T09:39:36.413Z,98653.56
2023-04-22T09:44:39.225Z,98647.02
2023-04-22T09:49:46.424Z,98644.56
2023-04-22T09:54:52.702Z,98633.31
2023-04-22T09:59:59.010Z,98628.44
2023-04-22T10:05:01.933Z,98624.60
2023-04-22T10:10:04.553Z,98627.17
2023-04-22T10:15:08.174Z,98622.23
2023-04-22T10:20:16.399Z,98616.27
2023-04-22T10:25:23.728Z,98615.05
2023-04-22T10:30:31.460Z,98610.37
2023-04-22T10:35:33.807Z,98606.23
2023-04-22T10:40:35.894Z,98603.56
2023-04-22T10:45:39.470Z,98601.04
2023-04-22T10:50:41.701Z,98599.70
2023-04-22T10:55:52.161Z,98594.08
2023-04-22T11:01:00.213Z,98590.31
2023-04-22T11:06:19.738Z,98586.49
2023-04-22T11:11:22.346Z,98580.66
2023-04-22T11:16:24.456Z,98578.18
2023-04-22T11:21:27.790Z,98572.17
2023-04-22T11:26:35.419Z,98566.22
2023-04-22T11:31:37.935Z,98561.60
2023-04-22T11:36:46.635Z,98558.41
2023-04-22T11:41:48.830Z,98550.66
2023-04-22T11:46:51.436Z,98547.29
2023-04-22T11:51:57.096Z,98545.23
2023-04-22T11:57:02.497Z,98542.93
2023-04-22T12:02:05.891Z,98537.81
2023-04-22T12:07:08.194Z,98531.09
2023-04-22T12:12:10.840Z,98527.31
2023-04-22T12:17:13.448Z,98524.77
2023-04-22T12:22:26.992Z,98526.50
2023-04-22T12:27:29.178Z,98515.09
2023-04-22T12:32:31.257Z,98513.42
2023-04-22T12:37:33.090Z,98508.36
2023-04-22T12:42:35.180Z,98506.37
2023-04-22T12:47:37.896Z,98505.98
2023-04-22T12:52:39.875Z,98502.00
2023-04-22T12:57:41.794Z,98497.02
2023-04-22T13:02:45.820Z,98489.38
2023-04-22T13:07:56.425Z,98487.88
2023-04-22T13:18:13.838Z,98478.77
2023-04-22T13:23:17.298Z,98474.16
2023-04-22T13:28:19.668Z,98471.17
2023-04-22T13:33:22.535Z,98467.02
2023-04-22T13:38:25.217Z,98459.77
2023-04-22T13:43:27.366Z,98455.34
2023-04-22T13:48:30.704Z,98453.08
2023-04-22T13:53:34.518Z,98448.73
2023-04-22T13:58:36.482Z,98446.41
2023-04-22T14:03:39.106Z,98443.92
2023-04-22T14:08:41.448Z,98439.61
2023-04-22T14:13:45.410Z,98438.06
2023-04-22T14:18:48.042Z,98438.24
2023-04-22T14:23:50.443Z,98433.26
2023-04-22T14:28:52.390Z,98434.09
2023-04-22T14:33:54.362Z,98425.19
2023-04-22T14:38:56.422Z,98425.64
2023-04-22T14:43:58.558Z,98426.36
2023-04-22T14:49:01.080Z,98423.98
2023-04-22T14:54:03.591Z,98415.86
2023-04-22T14:59:05.635Z,98414.64
2023-04-22T15:04:08.233Z,98415.13
2023-04-22T15:09:11.098Z,98410.77
2023-04-22T15:14:14.422Z,98409.61
2023-04-22T15:19:17.507Z,98406.77
2023-04-22T15:24:22.674Z,98399.71
2023-04-22T15:29:24.696Z,98396.59
2023-04-22T15:34:27.164Z,98399.34
2023-04-22T15:39:29.028Z,98395.84
2023-04-22T15:44:31.285Z,98396.64
2023-04-22T15:49:36.943Z,98396.67
2023-04-22T15:54:40.455Z,98399.48
2023-04-22T15:59:42.883Z,98399.17
2023-04-22T16:04:45.319Z,98399.32
2023-04-22T16:09:47.269Z,98400.05
2023-04-22T16:14:49.681Z,98393.46
2023-04-22T16:19:51.851Z,98389.04
2023-04-22T16:24:53.909Z,98385.29
2023-04-22T16:29:56.037Z,98388.82
2023-04-22T16:34:58.025Z,98383.19
2023-04-22T16:40:01.101Z,98383.13
2023-04-22T16:45:03.396Z,98381.02
2023-04-22T16:50:06.809Z,98374.40
2023-04-22T16:55:09.523Z,98370.58
2023-04-22T17:00:11.885Z,98367.84
2023-04-22T17:05:14.380Z,98370.48
2023-04-22T17:10:16.269Z,98371.10
2023-04-22T17:15:18.686Z,98374.59
2023-04-22T17:20:20.741Z,98378.10
2023-04-22T17:25:23.914Z,98372.78
2023-04-22T17:30:25.799Z,98374.77
2023-04-22T17:35:27.790Z,98374.68
2023-04-22T17:40:29.663Z,98371.52
2023-04-22T17:45:31.936Z,98374.52
2023-04-22T17:50:34.231Z,98375.55
2023-04-22T17:55:36.190Z,98377.98
2023-04-22T18:00:38.421Z,98378.65
2023-04-22T18:05:43.243Z,98376.97
2023-04-22T18:10:45.459Z,98382.88
2023-04-22T18:15:48.636Z,98394.23
2023-04-22T18:20:50.747Z,98396.38
2023-04-22T18:25:54.473Z,98397.27
2023-04-22T18:30:56.328Z,98399.33
2023-04-22T18:35:59.933Z,98398.23
2023-04-22T18:41:02.109Z,98405.35
2023-04-22T18:46:04.418Z,98411.27
2023-04-22T18:51:06.924Z,98410.42
2023-04-22T18:56:08.989Z,98406.83
2023-04-22T19:01:11.405Z,98411.33
2023-04-22T19:06:14.357Z,98414.40
2023-04-22T19:11:17.510Z,98417.13
2023-04-22T19:16:19.657Z,98416.58
2023-04-22T19:21:22.108Z,98422.51
2023-04-22T19:26:24.521Z,98418.42
2023-04-22T19:31:28.344Z,98415.42
2023-04-22T19:36:31.772Z,98414.20
2023-04-22T19:41:34.100Z,98413.36
2023-04-22T19:46:38.489Z,98413.08
2023-04-22T19:51:42.322Z,98414.83
2023-04-22T19:56:46.386Z,98423.34
2023-04-22T20:01:48.609Z,98420.46
2023-04-22T20:06:52.433Z,98414.70
2023-04-22T20:11:55.006Z,98416.45
2023-04-22T20:16:58.170Z,98409.11
2023-04-22T20:22:01.143Z,98406.08
2023-04-22T20:27:04.203Z,98408.84
2023-04-22T20:32:07.388Z,98406.46
2023-04-22T20:37:13.080Z,98404.02
2023-04-22T20:42:15.324Z,98403.91
2023-04-22T20:47:17.811Z,98400.31
2023-04-22T20:52:19.946Z,98400.77
2023-04-22T20:57:23.115Z,98401.48
2023-04-22T21:02:26.485Z,98402.70
2023-04-22T21:07:30.826Z,98402.96
2023-04-22T21:12:35.898Z,98405.86
2023-04-22T21:17:41.828Z,98408.63
2023-04-22T21:22:45.335Z,98407.88
2023-04-22T21:27:48.272Z,98411.84
2023-04-22T21:32:52.586Z,98414.16
2023-04-22T21:37:55.564Z,98416.05
2023-04-22T21:43:00.661Z,98417.36
2023-04-22T21:48:08.941Z,98414.61
2023-04-22T21:53:31.553Z,98419.27
2023-04-22T21:58:33.712Z,98419.80
2023-04-22T22:03:36.615Z,98417.31
2023-04-22T22:08:39.185Z,98412.42
2023-04-22T22:13:41.351Z,98415.59
2023-04-22T22:18:45.991Z,98414.62
2023-04-22T22:23:47.872Z,98414.59
2023-04-22T22:28:50.234Z,98416.46
2023-04-22T22:33:52.067Z,98415.42
2023-04-22T22:38:54.065Z,98412.44
2023-04-22T22:43:56.161Z,98416.39
2023-04-22T22:48:59.434Z,98420.11
2023-04-22T22:54:01.850Z,98424.30
2023-04-22T22:59:03.887Z,98418.64
2023-04-22T23:04:06.492Z,98419.52
2023-04-22T23:09:10.896Z,98423.05
2023-04-22T23:14:19.457Z,98422.70
2023-04-22T23:19:22.020Z,98417.93
2023-04-22T23:24:24.257Z,98417.98
2023-04-22T23:29:26.853Z,98416.91
2023-04-22T23:34:31.343Z,98409.95
2023-04-22T23:39:34.129Z,98404.94
2023-04-22T23:44:36.750Z,98405.04
2023-04-22T23:49:41.564Z,98403.08
2023-04-22T23:54:45.268Z,98398.65
2023-04-22T23:59:47.862Z,98398.92
